createdAt,value
2024-02-29T00:00:59.891Z,20.97
2024-02-29T00:01:59.953Z,20.94
2024-02-29T00:02:59.900Z,20.94
2024-02-29T00:03:59.988Z,20.96
2024-02-29T00:05:00.006Z,20.93
2024-02-29T00:06:00.080Z,20.96
2024-02-29T00:07:00.177Z,20.94
2024-02-29T00:08:00.165Z,20.94
2024-02-29T00:09:00.235Z,20.94
2024-02-29T00:10:00.332Z,20.93
2024-02-29T00:11:00.364Z,20.91
2024-02-29T00:12:00.429Z,20.93
2024-02-29T00:13:00.477Z,20.94
2024-02-29T00:14:00.488Z,20.93
2024-02-29T00:15:00.543Z,20.91
2024-02-29T00:16:00.574Z,20.94
2024-02-29T00:17:00.685Z,20.93
2024-02-29T00:18:00.738Z,20.91
2024-02-29T00:19:00.747Z,20.94
2024-02-29T00:20:00.800Z,20.91
2024-02-29T00:21:00.828Z,20.93
2024-02-29T00:22:00.891Z,20.93
2024-02-29T00:23:00.939Z,20.90
2024-02-29T00:24:00.991Z,20.93
2024-02-29T00:25:01.127Z,20.90
2024-02-29T00:26:01.069Z,20.93
2024-02-29T00:27:01.157Z,20.91
2024-02-29T00:28:01.259Z,20.91
2024-02-29T00:29:01.242Z,20.90
2024-02-29T00:30:01.284Z,20.91
2024-02-29T00:31:01.378Z,20.90
2024-02-29T00:32:01.399Z,20.90
2024-02-29T00:33:01.477Z,20.90
2024-02-29T00:34:01.512Z,20.90
2024-02-29T00:35:01.538Z,20.90
2024-02-29T00:36:09.233Z,20.90
2024-02-29T00:37:02.622Z,20.89
2024-02-29T00:38:01.601Z,20.90
2024-02-29T00:39:06.426Z,20.91
2024-02-29T00:40:02.643Z,20.90
2024-02-29T00:41:01.609Z,20.91
2024-02-29T00:42:01.601Z,20.91
2024-02-29T00:43:01.662Z,20.89
2024-02-29T00:44:01.639Z,20.89
2024-02-29T00:45:01.638Z,20.91
2024-02-29T00:46:01.674Z,20.89
2024-02-29T00:47:01.625Z,20.86
2024-02-29T00:48:01.663Z,20.89
2024-02-29T00:49:01.684Z,20.87
2024-02-29T00:50:01.641Z,20.89
2024-02-29T00:51:01.702Z,20.89
2024-02-29T00:52:01.732Z,20.87
2024-02-29T00:53:01.791Z,20.84
2024-02-29T00:54:01.938Z,20.87
2024-02-29T00:55:01.936Z,20.86
2024-02-29T00:56:01.960Z,20.87
2024-02-29T00:57:02.091Z,20.89
2024-02-29T00:58:02.123Z,20.87
2024-02-29T00:59:02.144Z,20.86
2024-02-29T01:00:02.177Z,20.84
2024-02-29T01:01:02.373Z,20.86
2024-02-29T01:02:02.923Z,20.86
2024-02-29T01:03:02.378Z,20.86
2024-02-29T01:04:02.503Z,20.87
2024-02-29T01:05:02.477Z,20.86
2024-02-29T01:06:02.558Z,20.87
2024-02-29T01:07:02.709Z,20.84
2024-02-29T01:08:02.674Z,20.86
2024-02-29T01:09:02.719Z,20.86
2024-02-29T01:10:02.864Z,20.84
2024-02-29T01:11:02.887Z,20.83
2024-02-29T01:12:02.922Z,20.86
2024-02-29T01:13:03.007Z,20.84
2024-02-29T01:14:13.097Z,20.84
2024-02-29T01:15:03.031Z,20.83
2024-02-29T01:16:03.202Z,20.86
2024-02-29T01:17:03.031Z,20.84
2024-02-29T01:18:03.064Z,20.84
2024-02-29T01:19:03.087Z,20.83
2024-02-29T01:20:03.047Z,20.84
2024-02-29T01:21:03.040Z,20.84
2024-02-29T01:22:03.071Z,20.86
2024-02-29T01:23:03.051Z,20.83
2024-02-29T01:24:03.064Z,20.82
2024-02-29T01:25:03.127Z,20.83
2024-02-29T01:26:03.059Z,20.83
2024-02-29T01:27:03.063Z,20.83
2024-02-29T01:28:03.140Z,20.83
2024-02-29T01:29:03.062Z,20.82
2024-02-29T01:30:03.074Z,20.82
2024-02-29T01:31:03.237Z,20.83
2024-02-29T01:32:12.087Z,20.83
2024-02-29T01:33:04.101Z,20.82
2024-02-29T01:34:03.130Z,20.82
2024-02-29T01:35:03.074Z,20.83
2024-02-29T01:36:03.059Z,20.83
2024-02-29T01:37:03.103Z,20.82
2024-02-29T01:38:03.081Z,20.80
2024-02-29T01:39:03.093Z,20.82
2024-02-29T01:40:03.206Z,20.82
2024-02-29T01:41:03.069Z,20.82
2024-02-29T01:42:03.085Z,20.82
2024-02-29T01:43:03.190Z,20.83
2024-02-29T01:44:03.231Z,20.83
2024-02-29T01:45:03.284Z,20.82
2024-02-29T01:46:03.360Z,20.80
2024-02-29T01:47:03.402Z,20.80
2024-02-29T01:48:03.515Z,20.80
2024-02-29T01:49:03.554Z,20.79
2024-02-29T01:50:03.818Z,20.79
2024-02-29T01:51:03.672Z,20.80
2024-02-29T01:52:03.781Z,20.80
2024-02-29T01:53:03.811Z,20.79
2024-02-29T01:54:03.886Z,20.82
2024-02-29T01:55:04.099Z,20.79
2024-02-29T01:56:04.025Z,20.80
2024-02-29T01:57:04.088Z,20.79
2024-02-29T01:58:04.260Z,20.79
2024-02-29T01:59:04.272Z,20.76
2024-02-29T02:00:04.342Z,20.78
2024-02-29T02:01:04.433Z,20.80
2024-02-29T02:02:04.428Z,20.80
2024-02-29T02:03:04.472Z,20.79
2024-02-29T02:04:06.394Z,20.79
2024-02-29T02:05:04.617Z,20.79
2024-02-29T02:06:04.664Z,20.78
2024-02-29T02:07:04.759Z,20.76
2024-02-29T02:08:04.815Z,20.79
2024-02-29T02:09:04.888Z,20.78
2024-02-29T02:10:04.995Z,20.80
2024-02-29T02:11:05.042Z,20.79
2024-02-29T02:12:05.073Z,20.76
2024-02-29T02:13:05.216Z,20.76
2024-02-29T02:14:05.221Z,20.79
2024-02-29T02:15:05.265Z,20.78
2024-02-29T02:16:05.390Z,20.79
2024-02-29T02:17:05.413Z,20.78
2024-02-29T02:18:05.523Z,20.75
2024-02-29T02:19:05.615Z,20.79
2024-02-29T02:20:05.639Z,20.75
2024-02-29T02:21:05.695Z,20.76
2024-02-29T02:22:05.984Z,20.78
2024-02-29T02:23:05.828Z,20.75
2024-02-29T02:24:06.359Z,20.75
2024-02-29T02:25:06.038Z,20.75
2024-02-29T02:26:06.058Z,20.76
2024-02-29T02:27:06.126Z,20.73
2024-02-29T02:28:06.289Z,20.76
2024-02-29T02:29:06.404Z,20.76
2024-02-29T02:30:06.346Z,20.75
2024-02-29T02:31:06.430Z,20.76
2024-02-29T02:32:06.471Z,20.75
2024-02-29T02:33:06.608Z,20.75
2024-02-29T02:34:12.304Z,20.73
2024-02-29T02:35:06.608Z,20.76
2024-02-29T02:36:06.639Z,20.76
2024-02-29T02:37:06.744Z,20.75
2024-02-29T02:38:06.623Z,20.75
2024-02-29T02:39:27.630Z,20.73
2024-02-29T02:40:06.754Z,20.75
2024-02-29T02:41:06.620Z,20.73
2024-02-29T02:42:06.638Z,20.73
2024-02-29T02:43:06.684Z,20.73
2024-02-29T02:44:28.866Z,20.73
2024-02-29T02:45:06.624Z,20.73
2024-02-29T02:46:06.733Z,20.75
2024-02-29T02:47:06.643Z,20.72
2024-02-29T02:48:06.702Z,20.72
2024-02-29T02:49:06.802Z,20.73
2024-02-29T02:50:06.746Z,20.72
2024-02-29T02:51:06.659Z,20.72
2024-02-29T02:52:06.722Z,20.71
2024-02-29T02:53:06.654Z,20.72
2024-02-29T02:54:06.666Z,20.73
2024-02-29T02:55:06.808Z,20.72
2024-02-29T02:56:06.666Z,20.69
2024-02-29T02:57:06.669Z,20.75
2024-02-29T02:58:06.722Z,20.72
2024-02-29T02:59:06.679Z,20.72
2024-02-29T03:00:06.688Z,20.75
2024-02-29T03:01:06.723Z,20.73
2024-02-29T03:02:06.746Z,20.72
2024-02-29T03:03:06.683Z,20.75
2024-02-29T03:04:06.781Z,20.72
2024-02-29T03:05:06.769Z,20.76
2024-02-29T03:06:06.835Z,20.75
2024-02-29T03:07:06.955Z,20.76
2024-02-29T03:08:07.039Z,20.76
2024-02-29T03:09:07.013Z,20.80
2024-02-29T03:10:07.137Z,20.83
2024-02-29T03:11:07.236Z,20.84
2024-02-29T03:12:07.222Z,20.83
2024-02-29T03:13:07.362Z,20.87
2024-02-29T03:14:12.182Z,20.90
2024-02-29T03:15:07.300Z,20.93
2024-02-29T03:16:07.370Z,20.96
2024-02-29T03:17:07.305Z,20.96
2024-02-29T03:18:07.386Z,21.00
2024-02-29T03:19:07.351Z,21.01
2024-02-29T03:20:07.367Z,21.04
2024-02-29T03:21:07.401Z,21.08
2024-02-29T03:22:07.465Z,21.11
2024-02-29T03:23:07.382Z,21.11
2024-02-29T03:24:07.336Z,21.13
2024-02-29T03:25:07.366Z,21.15
2024-02-29T03:26:07.346Z,21.20
2024-02-29T03:27:07.348Z,21.20
2024-02-29T03:28:07.472Z,21.23
2024-02-29T03:29:07.321Z,21.25
2024-02-29T03:30:07.348Z,21.28
2024-02-29T03:31:07.381Z,21.31
2024-02-29T03:32:07.346Z,21.31
2024-02-29T03:33:07.384Z,21.34
2024-02-29T03:34:07.441Z,21.37
2024-02-29T03:35:07.365Z,21.40
2024-02-29T03:36:07.395Z,21.44
2024-02-29T03:37:07.445Z,21.42
2024-02-29T03:38:07.406Z,21.46
2024-02-29T03:39:07.397Z,21.48
2024-02-29T03:40:07.496Z,21.46
2024-02-29T03:41:07.412Z,21.51
2024-02-29T03:42:07.415Z,21.52
2024-02-29T03:43:07.478Z,21.53
2024-02-29T03:44:07.466Z,21.56
2024-02-29T03:45:07.435Z,21.56
2024-02-29T03:46:07.520Z,21.59
2024-02-29T03:47:07.439Z,21.61
2024-02-29T03:48:07.533Z,21.61
2024-02-29T03:49:07.521Z,21.62
2024-02-29T03:50:07.528Z,21.63
2024-02-29T03:51:07.543Z,21.65
2024-02-29T03:52:07.581Z,21.66
2024-02-29T03:53:07.614Z,21.68
2024-02-29T03:54:07.636Z,21.70
2024-02-29T03:55:07.732Z,21.70
2024-02-29T03:56:07.757Z,21.73
2024-02-29T03:57:07.780Z,21.73
2024-02-29T03:58:07.961Z,21.73
2024-02-29T03:59:07.930Z,21.76
2024-02-29T04:00:08.099Z,21.78
2024-02-29T04:01:08.313Z,21.75
2024-02-29T04:02:08.114Z,21.79
2024-02-29T04:03:08.195Z,21.78
2024-02-29T04:04:08.318Z,21.79
2024-02-29T04:05:08.332Z,21.82
2024-02-29T04:06:08.414Z,21.79
2024-02-29T04:07:08.662Z,21.82
2024-02-29T04:08:08.547Z,21.80
2024-02-29T04:09:13.682Z,21.82
2024-02-29T04:10:08.670Z,21.85
2024-02-29T04:11:08.692Z,21.86
2024-02-29T04:12:08.637Z,21.89
2024-02-29T04:13:08.752Z,21.86
2024-02-29T04:14:08.641Z,21.85
2024-02-29T04:15:08.633Z,21.89
2024-02-29T04:16:08.714Z,21.87
2024-02-29T04:17:08.803Z,21.87
2024-02-29T04:18:08.892Z,21.89
2024-02-29T04:19:08.996Z,21.90
2024-02-29T04:20:08.978Z,21.90
2024-02-29T04:21:09.039Z,21.90
2024-02-29T04:22:09.134Z,21.92
2024-02-29T04:23:09.167Z,21.90
2024-02-29T04:24:09.225Z,21.93
2024-02-29T04:25:09.314Z,21.92
2024-02-29T04:26:09.344Z,21.95
2024-02-29T04:27:09.434Z,21.93
2024-02-29T04:28:09.532Z,21.95
2024-02-29T04:29:09.542Z,21.93
2024-02-29T04:30:09.609Z,21.99
2024-02-29T04:31:09.734Z,21.97
2024-02-29T04:32:09.720Z,21.96
2024-02-29T04:33:09.786Z,21.97
2024-02-29T04:34:09.888Z,21.99
2024-02-29T04:35:09.968Z,21.97
2024-02-29T04:36:09.956Z,22.00
2024-02-29T04:37:10.112Z,21.97
2024-02-29T04:38:10.026Z,21.99
2024-02-29T04:39:10.089Z,22.00
2024-02-29T04:40:11.517Z,22.01
2024-02-29T04:41:10.206Z,22.03
2024-02-29T04:42:10.243Z,22.01
2024-02-29T04:43:10.338Z,22.01
2024-02-29T04:44:10.350Z,22.03
2024-02-29T04:45:10.435Z,22.01
2024-02-29T04:46:10.533Z,22.04
2024-02-29T04:47:17.856Z,22.00
2024-02-29T04:48:17.873Z,22.01
2024-02-29T04:49:17.910Z,22.04
2024-02-29T04:50:17.849Z,22.04
2024-02-29T04:51:17.859Z,22.04
2024-02-29T04:52:17.866Z,22.06
2024-02-29T04:53:17.864Z,22.06
2024-02-29T04:54:38.888Z,22.06
2024-02-29T04:55:17.917Z,22.07
2024-02-29T04:56:17.873Z,22.07
2024-02-29T04:57:17.868Z,22.08
2024-02-29T04:58:17.936Z,22.11
2024-02-29T04:59:21.700Z,22.10
2024-02-29T05:00:17.929Z,22.11
2024-02-29T05:01:18.003Z,22.13
2024-02-29T05:02:17.987Z,22.13
2024-02-29T05:03:18.468Z,22.14
2024-02-29T05:04:17.908Z,22.13
2024-02-29T05:05:21.728Z,22.15
2024-02-29T05:06:17.887Z,22.14
2024-02-29T05:07:17.967Z,22.17
2024-02-29T05:08:17.901Z,22.14
2024-02-29T05:09:17.885Z,22.14
2024-02-29T05:10:18.003Z,22.18
2024-02-29T05:11:17.918Z,22.15
2024-02-29T05:12:17.894Z,22.18
2024-02-29T05:13:17.908Z,22.18
2024-02-29T05:14:17.882Z,22.20
2024-02-29T05:15:17.905Z,22.20
2024-02-29T05:16:17.939Z,22.23
2024-02-29T05:17:17.902Z,22.21
2024-02-29T05:18:17.968Z,22.21
2024-02-29T05:19:17.985Z,22.21
2024-02-29T05:20:17.936Z,22.23
2024-02-29T05:21:17.901Z,22.23
2024-02-29T05:22:17.932Z,22.24
2024-02-29T05:23:17.906Z,22.27
2024-02-29T05:24:17.909Z,22.27
2024-02-29T05:25:18.074Z,22.28
2024-02-29T05:26:17.908Z,22.27
2024-02-29T05:27:17.903Z,22.28
2024-02-29T05:28:17.975Z,22.27
2024-02-29T05:29:17.955Z,22.28
2024-02-29T05:30:17.921Z,22.27
2024-02-29T05:31:17.973Z,22.27
2024-02-29T05:32:19.070Z,22.27
2024-02-29T05:33:18.042Z,22.27
2024-02-29T05:34:18.088Z,22.28
2024-02-29T05:35:17.949Z,22.27
2024-02-29T05:36:17.950Z,22.27
2024-02-29T05:37:18.025Z,22.27
2024-02-29T05:38:17.938Z,22.27
2024-02-29T05:39:17.948Z,22.27
2024-02-29T05:40:18.019Z,22.25
2024-02-29T05:41:17.965Z,22.27
2024-02-29T05:42:17.943Z,22.28
2024-02-29T05:43:17.977Z,22.25
2024-02-29T05:44:17.942Z,22.24
2024-02-29T05:45:17.958Z,22.24
2024-02-29T05:46:18.035Z,22.25
2024-02-29T05:47:17.953Z,22.24
2024-02-29T05:48:17.959Z,22.25
2024-02-29T05:49:18.026Z,22.23
2024-02-29T05:50:17.969Z,22.24
2024-02-29T05:51:17.952Z,22.25
2024-02-29T05:52:17.994Z,22.23
2024-02-29T05:53:17.961Z,22.24
2024-02-29T05:54:17.987Z,22.23
2024-02-29T05:55:18.165Z,22.25
2024-02-29T05:56:18.081Z,22.24
2024-02-29T05:57:18.112Z,22.24
2024-02-29T05:58:18.167Z,22.24
2024-02-29T05:59:18.146Z,22.24
2024-02-29T06:00:18.161Z,22.24
2024-02-29T06:01:18.257Z,22.25
2024-02-29T06:02:18.257Z,22.23
2024-02-29T06:03:18.277Z,22.21
2024-02-29T06:04:18.452Z,22.25
2024-02-29T06:05:18.348Z,22.27
2024-02-29T06:06:18.368Z,22.27
2024-02-29T06:07:18.443Z,22.27
2024-02-29T06:08:18.445Z,22.24
2024-02-29T06:09:18.478Z,22.25
2024-02-29T06:10:18.579Z,22.28
2024-02-29T06:11:18.561Z,22.28
2024-02-29T06:12:18.563Z,22.28
2024-02-29T06:13:18.687Z,22.27
2024-02-29T06:14:18.644Z,22.28
2024-02-29T06:15:18.637Z,22.28
2024-02-29T06:16:18.684Z,22.30
2024-02-29T06:17:18.712Z,22.30
2024-02-29T06:18:18.751Z,22.30
2024-02-29T06:19:18.873Z,22.31
2024-02-29T06:20:18.777Z,22.30
2024-02-29T06:21:18.777Z,22.32
2024-02-29T06:22:18.839Z,22.34
2024-02-29T06:23:18.816Z,22.34
2024-02-29T06:24:18.822Z,22.32
2024-02-29T06:25:19.281Z,22.35
2024-02-29T06:26:18.901Z,22.34
2024-02-29T06:27:18.886Z,22.37
2024-02-29T06:28:22.925Z,22.35
2024-02-29T06:29:20.005Z,22.40
2024-02-29T06:30:18.930Z,22.38
2024-02-29T06:31:19.106Z,22.40
2024-02-29T06:32:18.934Z,22.40
2024-02-29T06:33:18.954Z,22.37
2024-02-29T06:34:18.985Z,22.32
2024-02-29T06:35:18.952Z,22.24
2024-02-29T06:36:18.924Z,22.14
2024-02-29T06:37:18.970Z,22.07
2024-02-29T06:38:18.921Z,21.93
2024-02-29T06:39:18.925Z,21.73
2024-02-29T06:40:19.022Z,21.62
2024-02-29T06:41:18.944Z,21.44
2024-02-29T06:42:18.948Z,21.30
2024-02-29T06:43:19.218Z,21.11
2024-02-29T06:44:18.946Z,21.00
2024-02-29T06:45:18.982Z,20.89
2024-02-29T06:46:19.065Z,20.76
2024-02-29T06:47:19.004Z,20.66
2024-02-29T06:48:19.077Z,20.58
2024-02-29T06:49:19.128Z,20.44
2024-02-29T06:50:19.164Z,20.25
2024-02-29T06:51:19.168Z,20.06
2024-02-29T06:52:19.353Z,19.84
2024-02-29T06:53:19.222Z,19.59
2024-02-29T06:54:19.297Z,19.42
2024-02-29T06:55:19.454Z,19.24
2024-02-29T06:56:19.414Z,19.06
2024-02-29T06:57:19.446Z,18.97
2024-02-29T06:58:19.566Z,18.80
2024-02-29T06:59:19.486Z,18.68
2024-02-29T07:00:19.513Z,18.56
2024-02-29T07:01:19.552Z,18.40
2024-02-29T07:02:19.526Z,18.35
2024-02-29T07:03:19.535Z,18.38
2024-02-29T07:04:19.744Z,18.48
2024-02-29T07:05:19.703Z,18.59
2024-02-29T07:06:19.670Z,18.79
2024-02-29T07:07:19.720Z,18.96
2024-02-29T07:08:19.744Z,19.17
2024-02-29T07:09:19.773Z,19.31
2024-02-29T07:10:19.899Z,19.49
2024-02-29T07:11:19.830Z,19.64
2024-02-29T07:12:19.924Z,19.80
2024-02-29T07:13:20.014Z,19.96
2024-02-29T07:14:19.983Z,20.06
2024-02-29T07:15:20.022Z,20.23
2024-02-29T07:16:20.047Z,20.35
2024-02-29T07:17:20.037Z,20.46
2024-02-29T07:18:20.066Z,20.59
2024-02-29T07:19:20.101Z,20.69
2024-02-29T07:20:20.130Z,20.80
2024-02-29T07:21:20.177Z,20.96
2024-02-29T07:22:20.322Z,21.01
2024-02-29T07:23:20.338Z,21.11
2024-02-29T07:24:20.383Z,21.20
2024-02-29T07:25:20.487Z,21.28
2024-02-29T07:26:20.496Z,21.35
2024-02-29T07:27:20.527Z,21.42
2024-02-29T07:28:20.639Z,21.46
2024-02-29T07:29:20.590Z,21.55
2024-02-29T07:30:20.700Z,21.62
2024-02-29T07:31:20.695Z,21.68
2024-02-29T07:32:20.703Z,21.72
2024-02-29T07:33:20.791Z,21.76
2024-02-29T07:34:20.763Z,21.82
2024-02-29T07:35:20.703Z,21.89
2024-02-29T07:36:20.745Z,21.95
2024-02-29T07:37:20.915Z,21.99
2024-02-29T07:38:20.753Z,22.03
2024-02-29T07:39:20.770Z,22.08
2024-02-29T07:40:20.926Z,22.14
2024-02-29T07:41:20.768Z,22.17
2024-02-29T07:42:20.797Z,22.20
2024-02-29T07:43:20.945Z,22.25
2024-02-29T07:44:20.866Z,22.30
2024-02-29T07:45:21.399Z,22.35
2024-02-29T07:46:21.022Z,22.38
2024-02-29T07:47:21.070Z,22.40
2024-02-29T07:48:21.161Z,22.45
2024-02-29T07:49:21.273Z,22.48
2024-02-29T07:50:21.272Z,22.52
2024-02-29T07:51:21.340Z,22.55
2024-02-29T07:52:21.552Z,22.56
2024-02-29T07:53:21.513Z,22.59
2024-02-29T07:54:21.601Z,22.63
2024-02-29T07:55:21.706Z,22.66
2024-02-29T07:56:21.732Z,22.68
2024-02-29T07:57:21.720Z,22.69
2024-02-29T07:58:21.873Z,22.72
2024-02-29T07:59:21.820Z,22.75
2024-02-29T08:00:21.882Z,22.77
2024-02-29T08:01:22.019Z,22.79
2024-02-29T08:02:24.684Z,22.79
2024-02-29T08:03:21.997Z,22.83
2024-02-29T08:04:22.048Z,22.89
2024-02-29T08:05:22.004Z,22.90
2024-02-29T08:06:21.995Z,22.93
2024-02-29T08:07:22.065Z,22.94
2024-02-29T08:08:22.009Z,22.97
2024-02-29T08:09:22.002Z,22.99
2024-02-29T08:10:22.095Z,23.03
2024-02-29T08:11:22.106Z,23.07
2024-02-29T08:12:22.003Z,23.09
2024-02-29T08:13:22.023Z,23.14
2024-02-29T08:14:22.038Z,23.11
2024-02-29T08:15:22.026Z,23.13
2024-02-29T08:16:22.021Z,23.17
2024-02-29T08:17:22.013Z,23.21
2024-02-29T08:18:22.019Z,23.22
2024-02-29T08:19:22.089Z,23.21
2024-02-29T08:20:22.034Z,23.27
2024-02-29T08:21:22.016Z,23.28
2024-02-29T08:22:22.038Z,23.30
2024-02-29T08:23:22.022Z,23.31
2024-02-29T08:24:22.060Z,23.35
2024-02-29T08:25:22.050Z,23.37
2024-02-29T08:26:22.014Z,23.40
2024-02-29T08:27:22.019Z,23.41
2024-02-29T08:28:22.099Z,23.40
2024-02-29T08:29:22.014Z,23.42
2024-02-29T08:30:22.042Z,23.45
2024-02-29T08:31:22.080Z,23.49
2024-02-29T08:32:22.060Z,23.49
2024-02-29T08:33:22.083Z,23.51
2024-02-29T08:34:22.126Z,23.54
2024-02-29T08:35:22.047Z,23.54
2024-02-29T08:36:22.039Z,23.59
2024-02-29T08:37:22.117Z,23.58
2024-02-29T08:38:22.051Z,23.59
2024-02-29T08:39:22.037Z,23.62
2024-02-29T08:40:22.137Z,23.65
2024-02-29T08:41:22.034Z,23.65
2024-02-29T08:42:22.045Z,23.68
2024-02-29T08:43:22.082Z,23.69
2024-02-29T08:44:22.053Z,23.70
2024-02-29T08:45:23.015Z,23.70
2024-02-29T08:46:22.143Z,23.72
2024-02-29T08:47:22.053Z,23.76
2024-02-29T08:48:22.063Z,23.75
2024-02-29T08:49:22.157Z,23.77
2024-02-29T08:50:22.074Z,23.75
2024-02-29T08:51:22.081Z,23.77
2024-02-29T08:52:22.107Z,23.75
2024-02-29T08:53:22.065Z,23.73
2024-02-29T08:54:22.062Z,23.65
2024-02-29T08:55:22.196Z,23.49
2024-02-29T08:56:22.068Z,23.32
2024-02-29T08:57:22.078Z,23.18
2024-02-29T08:58:22.240Z,23.09
2024-02-29T08:59:22.054Z,22.97
2024-02-29T09:00:22.084Z,22.92
2024-02-29T09:01:22.088Z,22.94
2024-02-29T09:02:22.063Z,22.93
2024-02-29T09:03:22.065Z,22.94
2024-02-29T09:04:22.101Z,22.99
2024-02-29T09:05:22.102Z,22.99
2024-02-29T09:06:22.073Z,23.06
2024-02-29T09:07:22.129Z,23.10
2024-02-29T09:08:22.966Z,23.14
2024-02-29T09:09:22.062Z,23.17
2024-02-29T09:10:22.111Z,23.21
2024-02-29T09:11:22.140Z,23.22
2024-02-29T09:12:22.098Z,23.25
2024-02-29T09:14:22.101Z,23.34
2024-02-29T09:15:22.080Z,23.37
2024-02-29T09:16:22.162Z,23.38
2024-02-29T09:17:22.097Z,23.41
2024-02-29T09:18:22.107Z,23.41
2024-02-29T09:19:22.210Z,23.42
2024-02-29T09:20:22.117Z,23.47
2024-02-29T09:21:22.081Z,23.48
2024-02-29T09:22:22.166Z,23.51
2024-02-29T09:23:22.089Z,23.54
2024-02-29T09:24:22.096Z,23.52
2024-02-29T09:25:22.233Z,23.55
2024-02-29T09:26:22.109Z,23.56
2024-02-29T09:27:22.116Z,23.58
2024-02-29T09:28:22.246Z,23.56
2024-02-29T09:29:24.142Z,23.62
2024-02-29T09:30:22.139Z,23.62
2024-02-29T09:31:22.337Z,23.62
2024-02-29T09:32:22.106Z,23.64
2024-02-29T09:33:22.099Z,23.65
2024-02-29T09:34:22.231Z,23.68
2024-02-29T09:35:22.127Z,23.69
2024-02-29T09:36:22.121Z,23.69
2024-02-29T09:37:22.130Z,23.68
2024-02-29T09:38:22.128Z,23.72
2024-02-29T09:39:22.122Z,23.70
2024-02-29T09:40:22.454Z,23.72
2024-02-29T09:41:32.728Z,23.73
2024-02-29T09:42:23.160Z,23.73
2024-02-29T09:43:22.223Z,23.73
2024-02-29T09:44:22.125Z,23.73
2024-02-29T09:45:23.746Z,23.73
2024-02-29T09:46:22.154Z,23.73
2024-02-29T09:47:22.156Z,23.73
2024-02-29T09:48:22.154Z,23.75
2024-02-29T09:49:22.200Z,23.75
2024-02-29T09:50:22.170Z,23.72
2024-02-29T09:51:22.136Z,23.73
2024-02-29T09:52:22.172Z,23.72
2024-02-29T09:53:22.147Z,23.70
2024-02-29T09:54:22.157Z,23.69
2024-02-29T09:55:22.192Z,23.68
2024-02-29T09:56:22.159Z,23.68
2024-02-29T09:57:22.201Z,23.66
2024-02-29T09:58:22.306Z,23.68
2024-02-29T09:59:22.171Z,23.73
2024-02-29T10:00:22.191Z,23.73
2024-02-29T10:01:22.257Z,23.76
2024-02-29T10:02:22.211Z,23.80
2024-02-29T10:03:22.219Z,23.83
2024-02-29T10:04:22.261Z,23.84
2024-02-29T10:05:22.181Z,23.89
2024-02-29T10:06:22.164Z,23.95
2024-02-29T10:07:22.238Z,23.96
2024-02-29T10:08:22.166Z,23.97
2024-02-29T10:09:22.178Z,24.04
2024-02-29T10:10:22.369Z,24.06
2024-02-29T10:11:22.291Z,24.09
2024-02-29T10:12:22.228Z,24.13
2024-02-29T10:13:22.333Z,24.17
2024-02-29T10:14:22.230Z,24.18
2024-02-29T10:15:22.179Z,24.23
2024-02-29T10:16:22.745Z,24.27
2024-02-29T10:17:22.194Z,24.30
2024-02-29T10:18:22.251Z,24.32
2024-02-29T10:19:22.304Z,24.37
2024-02-29T10:20:22.208Z,24.38
2024-02-29T10:21:22.193Z,24.38
2024-02-29T10:22:22.259Z,24.42
2024-02-29T10:23:22.188Z,24.44
2024-02-29T10:24:22.198Z,24.47
2024-02-29T10:25:22.340Z,24.48
2024-02-29T10:26:22.203Z,24.51
2024-02-29T10:27:22.186Z,24.52
2024-02-29T10:28:22.259Z,24.55
2024-02-29T10:29:23.858Z,24.58
2024-02-29T10:30:22.208Z,24.58
2024-02-29T10:31:22.251Z,24.58
2024-02-29T10:32:22.241Z,24.59
2024-02-29T10:33:22.264Z,24.61
2024-02-29T10:34:22.399Z,24.63
2024-02-29T10:35:22.221Z,24.65
2024-02-29T10:36:22.212Z,24.62
2024-02-29T10:37:22.323Z,24.65
2024-02-29T10:38:22.250Z,24.63
2024-02-29T10:39:22.226Z,24.66
2024-02-29T10:40:22.347Z,24.69
2024-02-29T10:41:22.222Z,24.68
2024-02-29T10:42:22.243Z,24.68
2024-02-29T10:43:22.330Z,24.68
2024-02-29T10:44:22.230Z,24.68
2024-02-29T10:45:25.053Z,24.68
2024-02-29T10:46:22.344Z,24.68
2024-02-29T10:47:22.236Z,24.63
2024-02-29T10:48:22.243Z,24.55
2024-02-29T10:49:22.307Z,24.51
2024-02-29T10:50:22.243Z,24.48
2024-02-29T10:51:24.516Z,24.45
2024-02-29T10:52:22.285Z,24.42
2024-02-29T10:53:22.244Z,24.41
2024-02-29T10:54:22.273Z,24.41
2024-02-29T10:55:22.354Z,24.41
2024-02-29T10:56:22.273Z,24.39
2024-02-29T10:57:22.242Z,24.42
2024-02-29T10:58:22.336Z,24.44
2024-02-29T10:59:22.272Z,24.47
2024-02-29T11:00:22.258Z,24.48
2024-02-29T11:01:22.375Z,24.47
2024-02-29T11:02:22.257Z,24.48
2024-02-29T11:03:22.259Z,24.51
2024-02-29T11:04:22.292Z,24.51
2024-02-29T11:05:22.263Z,24.52
2024-02-29T11:06:22.244Z,24.54
2024-02-29T11:07:22.360Z,24.55
2024-02-29T11:08:22.252Z,24.56
2024-02-29T11:09:25.538Z,24.58
2024-02-29T11:10:23.398Z,24.56
2024-02-29T11:11:22.336Z,24.56
2024-02-29T11:12:22.262Z,24.58
2024-02-29T11:13:22.383Z,24.58
2024-02-29T11:14:22.301Z,24.61
2024-02-29T11:15:23.489Z,24.63
2024-02-29T11:16:22.307Z,24.62
2024-02-29T11:17:22.274Z,24.63
2024-02-29T11:18:22.268Z,24.62
2024-02-29T11:19:22.349Z,24.65
2024-02-29T11:20:22.330Z,24.66
2024-02-29T11:21:22.276Z,24.65
2024-02-29T11:22:22.350Z,24.69
2024-02-29T11:23:22.281Z,24.66
2024-02-29T11:24:22.393Z,24.69
2024-02-29T11:25:22.518Z,24.69
2024-02-29T11:26:22.316Z,24.69
2024-02-29T11:27:22.341Z,24.69
2024-02-29T11:28:22.412Z,24.73
2024-02-29T11:29:22.394Z,24.73
2024-02-29T11:30:22.658Z,24.73
2024-02-29T11:31:22.518Z,24.72
2024-02-29T11:32:22.468Z,24.75
2024-02-29T11:33:22.595Z,24.73
2024-02-29T11:34:22.662Z,24.73
2024-02-29T11:35:22.622Z,24.76
2024-02-29T11:36:22.575Z,24.75
2024-02-29T11:37:24.884Z,24.76
2024-02-29T11:38:29.147Z,24.76
2024-02-29T11:39:23.626Z,24.78
2024-02-29T11:40:22.680Z,24.78
2024-02-29T11:41:22.620Z,24.79
2024-02-29T11:42:22.607Z,24.80
2024-02-29T11:43:24.881Z,24.82
2024-02-29T11:44:22.606Z,24.79
2024-02-29T11:45:22.813Z,24.73
2024-02-29T11:46:22.670Z,24.69
2024-02-29T11:47:22.618Z,24.62
2024-02-29T11:48:22.623Z,24.56
2024-02-29T11:49:22.737Z,24.51
2024-02-29T11:50:22.616Z,24.44
2024-02-29T11:51:22.646Z,24.41
2024-02-29T11:52:22.657Z,24.37
2024-02-29T11:53:22.624Z,24.31
2024-02-29T11:54:24.191Z,24.30
2024-02-29T11:55:22.805Z,24.23
2024-02-29T11:56:22.638Z,24.20
2024-02-29T11:57:22.651Z,24.17
2024-02-29T11:58:22.673Z,24.14
2024-02-29T11:59:22.729Z,24.11
2024-02-29T12:00:22.621Z,24.10
2024-02-29T12:01:22.677Z,24.07
2024-02-29T12:02:22.643Z,24.10
2024-02-29T12:03:23.668Z,24.03
2024-02-29T12:04:22.824Z,24.03
2024-02-29T12:05:22.685Z,24.06
2024-02-29T12:06:22.625Z,24.07
2024-02-29T12:07:22.698Z,24.11
2024-02-29T12:08:22.694Z,24.11
2024-02-29T12:09:22.640Z,24.13
2024-02-29T12:10:22.768Z,24.13
2024-02-29T12:11:22.690Z,24.18
2024-02-29T12:12:22.645Z,24.23
2024-02-29T12:13:22.713Z,24.24
2024-02-29T12:14:22.648Z,24.27
2024-02-29T12:15:22.683Z,24.28
2024-02-29T12:16:22.703Z,24.30
2024-02-29T12:17:22.664Z,24.32
2024-02-29T12:18:22.681Z,24.35
2024-02-29T12:19:22.735Z,24.35
2024-02-29T12:20:22.654Z,24.35
2024-02-29T12:21:28.639Z,24.38
2024-02-29T12:22:23.779Z,24.38
2024-02-29T12:23:22.672Z,24.39
2024-02-29T12:24:22.681Z,24.42
2024-02-29T12:25:22.779Z,24.45
2024-02-29T12:26:22.694Z,24.45
2024-02-29T12:27:22.699Z,24.44
2024-02-29T12:28:22.720Z,24.45
2024-02-29T12:29:22.679Z,24.45
2024-02-29T12:30:22.686Z,24.47
2024-02-29T12:31:22.959Z,24.48
2024-02-29T12:32:22.695Z,24.47
2024-02-29T12:33:26.425Z,24.50
2024-02-29T12:34:23.803Z,24.48
2024-02-29T12:35:22.770Z,24.47
2024-02-29T12:36:22.818Z,24.51
2024-02-29T12:37:22.829Z,24.48
2024-02-29T12:38:22.846Z,24.48
2024-02-29T12:39:22.778Z,24.45
2024-02-29T12:40:22.909Z,24.44
2024-02-29T12:41:22.781Z,24.41
2024-02-29T12:42:22.763Z,24.39
2024-02-29T12:43:22.950Z,24.38
2024-02-29T12:44:22.815Z,24.35
2024-02-29T12:45:22.923Z,24.35
2024-02-29T12:46:23.097Z,24.37
2024-02-29T12:47:23.034Z,24.31
2024-02-29T12:48:23.097Z,24.30
2024-02-29T12:49:23.225Z,24.28
2024-02-29T12:50:23.245Z,24.30
2024-02-29T12:51:23.347Z,24.27
2024-02-29T12:52:23.395Z,24.27
2024-02-29T12:53:23.456Z,24.25
2024-02-29T12:54:23.766Z,24.23